Ginys del Meteocat

Dades de l'estació automàtica Castellnou de Bages

?
?
Resum diari 22:30 TU
Dades diàries de l'estació meteorològica
Temperatura mitjana 6.3 °C
Temperatura màxima 9.7 °C 13:34 TU
Temperatura mínima 3.1 °C 4:33 TU
Humitat relativa mitjana 87%
Precipitació acumulada 0.0 mm
Ratxa màxima del vent (10 m) 17.3 km/h - 5º 0:46 TU
Irradiació solar global 4.6 MJ/m2

El tram horari està expressat en Temps Universal (TU). Cal sumar una hora en horari d'hivern i dues en horari d'estiu per passar a l'hora oficial.

Castellnou de Bages

Metadades estació meteorol´gica
Municipi Castellnou de Bages
Comarca Bages
Altitud 507 m
Data alta 22.01.1998
Estat actual Operativa
Dades de període
Període
TU
TM
°C
TX
°C
TN
°C
HRM
%
PPT
mm
VVM (10 m)
km/h
DVM (10 m)
graus
VVX (10 m)
km/h
RS
W/m2
00:00 - 00:30 4.7 5.1 4.4 86 0.0 6.8 2 13.0 0
00:30 - 01:00 4.9 4.9 4.8 84 0.0 11.9 6 17.3 0
01:00 - 01:30 4.5 4.7 4.2 86 0.0 4.3 7 16.9 0
01:30 - 02:00 4.5 4.6 4.2 85 0.0 8.3 4 14.4 0
02:00 - 02:30 4.7 4.8 4.6 83 0.0 5.0 14 12.2 0
02:30 - 03:00 3.9 4.8 3.5 90 0.0 4.3 204 11.5 0
03:00 - 03:30 3.4 3.9 3.2 92 0.0 3.2 331 9.7 0
03:30 - 04:00 3.7 3.8 3.5 90 0.0 2.2 46 6.5 0
04:00 - 04:30 3.4 3.7 3.2 91 0.0 1.8 28 6.1 0
04:30 - 05:00 3.5 4.1 3.1 90 0.0 4.0 7 8.6 0
05:00 - 05:30 3.9 4.1 3.8 87 0.0 5.8 12 9.0 0
05:30 - 06:00 3.8 4.6 3.6 88 0.0 5.0 1 10.8 0
06:00 - 06:30 4.6 4.8 4.3 83 0.0 5.8 11 14.8 0
06:30 - 07:00 4.1 4.6 3.7 87 0.0 0.7 33 4.7 0
07:00 - 07:30 3.9 4.9 3.5 88 0.0 3.6 18 10.8 3
07:30 - 08:00 4.5 4.7 4.2 87 0.0 4.0 23 10.4 18
08:00 - 08:30 4.4 4.6 4.1 89 0.0 2.2 176 9.0 26
08:30 - 09:00 4.2 5.1 3.7 91 0.0 3.6 14 13.0 46
09:00 - 09:30 5.1 5.6 4.9 89 0.0 4.0 15 10.4 113
09:30 - 10:00 6.0 6.1 5.8 85 0.0 4.0 28 11.9 133
10:00 - 10:30 6.2 6.5 6.1 84 0.0 2.9 103 11.9 112
10:30 - 11:00 6.9 7.2 6.6 86 0.0 1.4 183 5.4 158
11:00 - 11:30 7.4 7.5 7.0 82 0.0 6.1 11 11.2 148
11:30 - 12:00 7.8 8.4 7.5 81 0.0 4.7 14 9.7 175
12:00 - 12:30 8.3 8.8 8.0 80 0.0 2.9 52 6.8 188
12:30 - 13:00 8.4 8.6 8.0 82 0.0 3.6 10 7.2 163
13:00 - 13:30 8.8 9.2 8.4 81 0.0 5.4 52 11.2 333
13:30 - 14:00 9.4 9.7 9.1 75 0.0 3.6 65 7.9 318
14:00 - 14:30 9.4 9.6 9.2 75 0.0 6.1 66 10.1 280
14:30 - 15:00 9.2 9.3 9.1 76 0.0 6.5 63 10.1 143
15:00 - 15:30 9.3 9.4 9.2 79 0.0 4.3 81 8.6 111
15:30 - 16:00 9.3 9.4 9.2 79 0.0 1.8 45 3.2 65
16:00 - 16:30 9.0 9.2 8.8 83 0.0 0.4 83 2.9 29
16:30 - 17:00 8.5 8.7 8.0 91 0.0 0.0 144 1.4 7
17:00 - 17:30 8.0 8.0 7.9 92 0.0 0.4 86 1.4 0
17:30 - 18:00 7.8 7.9 7.7 92 0.0 0.4 257 1.8 0
18:00 - 18:30 7.8 7.8 7.7 95 0.0 1.8 214 3.2 0
18:30 - 19:00 7.6 7.8 7.5 94 0.0 1.8 286 2.9 0
19:00 - 19:30 7.6 7.8 7.4 92 0.0 3.2 16 7.9 0
19:30 - 20:00 7.2 7.4 7.0 94 0.0 4.3 13 7.2 0
20:00 - 20:30 7.1 7.1 7.0 94 0.0 5.0 14 7.6 0
20:30 - 21:00 7.1 7.2 7.1 95 0.0 5.4 15 8.3 0
21:00 - 21:30 7.0 7.1 6.9 92 0.0 6.5 16 11.2 0
21:30 - 22:00 6.9 7.1 6.7 92 0.0 6.8 20 10.1 0
22:00 - 22:30 7.1 7.2 6.8 87 0.0 8.6 0 12.2 0
22:30 - 23:00 6.7 7.0 6.4 89 0.0 6.5 17 11.9 0

Les dades en taronja només han passat un control de qualitat automàtic. Resta pendent la seva validació definitiva.